createdAt,value
2017-09-27T00:00:12.416Z,21.9
2017-09-27T00:05:10.245Z,23.1
2017-09-27T00:10:10.582Z,24.4
2017-09-27T00:15:11.132Z,24.1
2017-09-27T00:20:17.170Z,25.1
2017-09-27T00:25:11.657Z,25.1
2017-09-27T00:30:11.931Z,23.5
2017-09-27T00:35:12.259Z,24.3
2017-09-27T00:40:12.604Z,26.5
2017-09-27T00:45:15.967Z,25.8
2017-09-27T00:50:13.246Z,27
2017-09-27T00:55:13.596Z,28.1
2017-09-27T01:00:15.057Z,26.7
2017-09-27T01:05:14.281Z,27.4
2017-09-27T01:10:16.770Z,24.9
2017-09-27T01:15:17.079Z,27
2017-09-27T01:20:15.292Z,25.7
2017-09-27T01:25:15.626Z,25.8
2017-09-27T01:30:15.954Z,25.9
2017-09-27T01:35:16.329Z,26.7
2017-09-27T01:40:16.719Z,25.8
2017-09-27T01:45:18.637Z,25.8
2017-09-27T01:50:18.769Z,24.5
2017-09-27T01:55:17.628Z,25.3
2017-09-27T02:00:19.604Z,27.6
2017-09-27T02:05:18.332Z,24.9
2017-09-27T02:10:20.943Z,23.7
2017-09-27T02:15:18.981Z,26.8
2017-09-27T02:20:38.533Z,24.9
2017-09-27T02:25:19.971Z,25
2017-09-27T02:30:19.991Z,25.4
2017-09-27T02:35:20.360Z,25
2017-09-27T02:40:20.681Z,27.3
2017-09-27T02:45:21.014Z,25.4
2017-09-27T02:50:21.355Z,25.9
2017-09-27T02:55:21.687Z,24.9
2017-09-27T03:00:22.019Z,25.1
2017-09-27T03:05:22.349Z,24.2
2017-09-27T03:10:22.693Z,24.8
2017-09-27T03:15:23.903Z,24.6
2017-09-27T03:20:40.802Z,25
2017-09-27T03:25:26.138Z,25.2
2017-09-27T03:30:24.056Z,24.4
2017-09-27T03:35:24.382Z,24
2017-09-27T03:40:43.773Z,25.2
2017-09-27T03:45:25.052Z,21.1
2017-09-27T03:50:25.400Z,23.1
2017-09-27T03:55:25.700Z,22.8
2017-09-27T04:00:26.079Z,21.6
2017-09-27T04:05:26.372Z,22.6
2017-09-27T04:10:26.738Z,22.5
2017-09-27T04:15:27.073Z,20.3
2017-09-27T04:20:27.401Z,21.6
2017-09-27T04:25:27.751Z,20.2
2017-09-27T04:30:28.088Z,21.2
2017-09-27T04:35:28.426Z,22.4
2017-09-27T04:40:29.911Z,20.4
2017-09-27T04:45:29.079Z,17.7
2017-09-27T04:50:29.436Z,20
2017-09-27T04:55:31.240Z,17.7
2017-09-27T05:00:30.080Z,19.4
2017-09-27T05:05:30.439Z,18.8
2017-09-27T05:10:30.768Z,18.2
2017-09-27T05:15:31.110Z,18.7
2017-09-27T05:20:31.446Z,17
2017-09-27T05:25:31.763Z,18.4
2017-09-27T05:30:32.147Z,18.5
2017-09-27T05:35:32.468Z,16.9
2017-09-27T05:40:32.797Z,16.1
2017-09-27T05:45:33.133Z,17
2017-09-27T05:50:33.450Z,15.8
2017-09-27T05:55:33.798Z,17.7
2017-09-27T06:05:42.153Z,16.5
2017-09-27T06:10:42.467Z,14.4
2017-09-27T06:15:42.825Z,15.9
2017-09-27T06:20:43.174Z,15.4
2017-09-27T06:25:43.619Z,13.5
2017-09-27T06:30:43.834Z,15.6
2017-09-27T06:35:44.178Z,13.8
2017-09-27T06:40:44.596Z,14.9
2017-09-27T06:45:44.853Z,13.8
2017-09-27T06:50:45.165Z,13.3
2017-09-27T06:55:45.676Z,14.7
2017-09-27T07:00:45.863Z,13.8
2017-09-27T07:05:46.188Z,12.8
2017-09-27T07:10:46.589Z,12.9
2017-09-27T07:15:46.890Z,12.7
2017-09-27T07:20:49.933Z,11.3
2017-09-27T07:25:47.572Z,10.7
2017-09-27T07:30:47.881Z,11.9
2017-09-27T07:35:48.196Z,11.3
2017-09-27T07:40:48.556Z,12.5
2017-09-27T07:45:49.085Z,12
2017-09-27T07:50:49.230Z,11.1
2017-09-27T07:55:49.558Z,11.7
2017-09-27T08:00:49.901Z,11.6
2017-09-27T08:05:50.244Z,11
2017-09-27T08:10:50.588Z,11.1
2017-09-27T08:15:50.920Z,12
2017-09-27T08:25:58.786Z,11.2
2017-09-27T08:30:59.132Z,11.8
2017-09-27T08:35:59.477Z,10.5
2017-09-27T08:41:02.556Z,9.7
2017-09-27T08:46:00.164Z,11.8
2017-09-27T08:51:14.898Z,11
2017-09-27T08:56:12.690Z,9.8
2017-09-27T09:01:01.174Z,11.2
2017-09-27T09:06:03.817Z,10.2
2017-09-27T09:11:01.817Z,10.1
2017-09-27T09:16:02.158Z,10.4
2017-09-27T09:21:02.488Z,10.1
2017-09-27T09:26:17.142Z,10
2017-09-27T09:31:03.150Z,9.8
2017-09-27T09:36:03.505Z,9.3
2017-09-27T09:41:03.856Z,9
2017-09-27T09:46:04.180Z,9.8
2017-09-27T09:51:11.984Z,9.8
2017-09-27T09:56:04.892Z,9.9
2017-09-27T10:01:05.188Z,8.5
2017-09-27T10:06:09.998Z,9.6
2017-09-27T10:11:05.865Z,9.4
2017-09-27T10:16:10.556Z,9.7
2017-09-27T10:21:06.518Z,8.1
2017-09-27T10:26:06.885Z,9.9
2017-09-27T10:31:26.016Z,9.1
2017-09-27T10:36:09.753Z,9
2017-09-27T10:41:07.884Z,8.8
2017-09-27T10:46:08.217Z,8.4
2017-09-27T10:51:08.525Z,7.8
2017-09-27T10:56:13.453Z,8.1
2017-09-27T11:01:09.209Z,8.9
2017-09-27T11:06:09.576Z,9.1
2017-09-27T11:11:09.901Z,7.8
2017-09-27T11:16:11.093Z,7.7
2017-09-27T11:21:21.812Z,8.8
2017-09-27T11:26:10.882Z,7.6
2017-09-27T11:31:28.377Z,8.9
2017-09-27T11:36:11.628Z,9.3
2017-09-27T11:41:11.924Z,8.6
2017-09-27T11:46:12.247Z,7.5
2017-09-27T11:51:12.607Z,9.1
2017-09-27T11:56:13.040Z,7.2
2017-09-27T12:01:13.353Z,7.8
2017-09-27T12:06:13.581Z,8.2
2017-09-27T12:11:13.940Z,8.3
2017-09-27T12:16:14.262Z,8.2
2017-09-27T12:21:15.643Z,7.6
2017-09-27T12:26:16.497Z,7.9
2017-09-27T12:31:15.262Z,7.3
2017-09-27T12:36:15.633Z,8.4
2017-09-27T12:41:15.987Z,7.6
2017-09-27T12:46:16.322Z,7.5
2017-09-27T12:51:16.682Z,7.1
2017-09-27T12:56:16.988Z,8
2017-09-27T13:01:17.329Z,7
2017-09-27T13:06:18.585Z,7.7
2017-09-27T13:11:17.998Z,7.2
2017-09-27T13:16:18.379Z,7.1
2017-09-27T13:21:18.628Z,7.2
2017-09-27T13:26:18.993Z,7.2
2017-09-27T13:31:19.343Z,6.9
2017-09-27T13:36:19.688Z,6.5
2017-09-27T13:41:20.035Z,8.1
2017-09-27T13:46:20.338Z,6.8
2017-09-27T13:51:33.198Z,7.1
2017-09-27T13:56:21.022Z,6.4
2017-09-27T14:01:21.380Z,6.7
2017-09-27T14:06:24.271Z,6.5
2017-09-27T14:11:22.026Z,6.8
2017-09-27T14:16:22.389Z,6.2
2017-09-27T14:21:22.734Z,6.4
2017-09-27T14:26:23.134Z,6.7
2017-09-27T14:31:23.371Z,5.8
2017-09-27T14:36:23.725Z,6.4
2017-09-27T14:41:24.080Z,6.8
2017-09-27T14:46:24.413Z,5.6
2017-09-27T14:51:24.764Z,6.2
2017-09-27T14:56:36.249Z,5.6
2017-09-27T15:01:25.391Z,6.1
2017-09-27T15:06:37.166Z,5.6
2017-09-27T15:11:43.947Z,6.4
2017-09-27T15:16:26.372Z,5.6
2017-09-27T15:21:26.731Z,5.5
2017-09-27T15:26:27.063Z,6.6
2017-09-27T15:31:27.378Z,5.5
2017-09-27T15:36:27.727Z,6.6
2017-09-27T15:41:29.063Z,5.6
2017-09-27T15:46:29.495Z,5.7
2017-09-27T15:51:28.718Z,5.7
2017-09-27T15:56:29.220Z,5.3
2017-09-27T16:01:29.396Z,5.7
2017-09-27T16:06:29.751Z,5.1
2017-09-27T16:11:30.988Z,6.5
2017-09-27T16:16:30.440Z,6.5
2017-09-27T16:21:32.605Z,6.1
2017-09-27T16:26:39.231Z,5.3
2017-09-27T16:31:31.432Z,5.5
2017-09-27T16:36:31.775Z,6.5
2017-09-27T16:41:32.198Z,5.7
2017-09-27T16:46:32.426Z,5.3
2017-09-27T16:51:33.253Z,6
2017-09-27T16:56:33.215Z,5.8
2017-09-27T17:01:33.453Z,6.1
2017-09-27T17:06:33.795Z,6
2017-09-27T17:11:34.132Z,5.3
2017-09-27T17:16:34.465Z,5.7
2017-09-27T17:21:34.798Z,5.9
2017-09-27T17:26:35.146Z,6.5
2017-09-27T17:31:39.094Z,6.5
2017-09-27T17:36:35.810Z,6.8
2017-09-27T17:41:38.887Z,6.1
2017-09-27T17:46:36.491Z,6.6
2017-09-27T17:51:36.841Z,6.4
2017-09-27T17:56:37.145Z,6.9
2017-09-27T18:01:37.473Z,6.7
2017-09-27T18:06:39.489Z,6.6
2017-09-27T18:11:38.170Z,6.7
2017-09-27T18:16:38.490Z,6.7
2017-09-27T18:21:38.824Z,7.9
2017-09-27T18:26:39.179Z,7.6
2017-09-27T18:31:39.531Z,7.1
2017-09-27T18:36:41.357Z,7.8
2017-09-27T18:41:40.192Z,7.7
2017-09-27T18:46:40.562Z,7.7
2017-09-27T18:51:40.895Z,8
2017-09-27T18:56:41.201Z,8
2017-09-27T19:01:41.543Z,7.6
2017-09-27T19:06:41.876Z,8.4
2017-09-27T19:11:43.812Z,8.1
2017-09-27T19:16:44.876Z,7.1
2017-09-27T19:21:42.913Z,8.9
2017-09-27T19:26:43.228Z,8.8
2017-09-27T19:31:43.527Z,8.1
2017-09-27T19:36:43.901Z,8.5
2017-09-27T19:41:44.241Z,8.3
2017-09-27T19:46:44.552Z,7.3
2017-09-27T19:51:44.911Z,8.4
2017-09-27T19:56:45.262Z,8
2017-09-27T20:01:45.573Z,8.9
2017-09-27T20:06:45.926Z,8.2
2017-09-27T20:11:46.256Z,9.5
2017-09-27T20:16:48.459Z,8.5
2017-09-27T20:21:46.930Z,9.1
2017-09-27T20:26:47.361Z,9
2017-09-27T20:31:47.603Z,8.9
2017-09-27T20:36:47.945Z,8.7
2017-09-27T20:41:49.748Z,8.3
2017-09-27T20:46:48.598Z,9.2
2017-09-27T20:51:48.968Z,10.2
2017-09-27T20:56:49.294Z,10.1
2017-09-27T21:01:49.640Z,9.3
2017-09-27T21:06:49.962Z,9.4
2017-09-27T21:11:50.456Z,10.4
2017-09-27T21:16:50.789Z,9.9
2017-09-27T21:21:50.988Z,11.1
2017-09-27T21:27:04.693Z,10.2
2017-09-27T21:31:51.650Z,10
2017-09-27T21:36:51.983Z,9.9
2017-09-27T21:41:52.301Z,11.2
2017-09-27T21:46:52.659Z,10.3
2017-09-27T21:51:53.097Z,10.9
2017-09-27T21:56:53.314Z,11.7
2017-09-27T22:01:53.670Z,11.9
2017-09-27T22:06:56.166Z,12.1
2017-09-27T22:11:55.679Z,11.6
2017-09-27T22:16:56.912Z,11.2
2017-09-27T22:21:54.996Z,11.7
2017-09-27T22:26:55.361Z,12.3
2017-09-27T22:31:55.706Z,13.3
2017-09-27T22:36:56.035Z,13
2017-09-27T22:41:56.347Z,13.5
2017-09-27T22:46:57.626Z,12.9
2017-09-27T22:51:57.013Z,14.3
2017-09-27T22:56:57.376Z,13.9
2017-09-27T23:01:57.711Z,14.3
2017-09-27T23:06:58.055Z,14.4
2017-09-27T23:12:00.088Z,15.3
2017-09-27T23:16:58.714Z,17.7
2017-09-27T23:21:59.060Z,16.2
2017-09-27T23:26:59.375Z,16.1
2017-09-27T23:31:59.740Z,16.1
2017-09-27T23:37:00.062Z,15.5
2017-09-27T23:42:00.389Z,17.7
2017-09-27T23:47:03.165Z,17.6
2017-09-27T23:52:03.378Z,17.3
2017-09-27T23:57:01.398Z,16.1
